createdAt,value
2022-11-07T00:01:13.796Z,75.23
2022-11-07T00:03:40.619Z,75.53
2022-11-07T00:21:22.226Z,75.06
2022-11-07T00:23:48.932Z,74.98
2022-11-07T00:26:15.609Z,74.82
2022-11-07T00:28:43.655Z,74.90
2022-11-07T00:31:12.901Z,75.32
2022-11-07T00:33:40.342Z,75.19
2022-11-07T00:36:07.764Z,74.95
2022-11-07T00:38:34.375Z,75.59
2022-11-07T00:41:06.477Z,75.48
2022-11-07T00:43:33.625Z,75.58
2022-11-07T00:46:04.643Z,75.54
2022-11-07T00:48:32.176Z,75.53
2022-11-07T00:51:12.377Z,76.27
2022-11-07T00:53:39.821Z,75.79
2022-11-07T00:56:12.216Z,75.27
2022-11-07T00:58:39.929Z,75.30
2022-11-07T01:01:12.309Z,76.34
2022-11-07T01:03:59.010Z,76.16
2022-11-07T01:06:28.611Z,75.06
2022-11-07T01:08:56.552Z,75.85
2022-11-07T01:11:25.163Z,75.60
2022-11-07T01:13:55.869Z,75.64
2022-11-07T01:16:22.664Z,75.63
2022-11-07T01:18:49.609Z,74.68
2022-11-07T01:21:16.756Z,75.26
2022-11-07T01:23:43.812Z,75.70
2022-11-07T01:26:12.253Z,74.99
2022-11-07T01:28:39.222Z,75.02
2022-11-07T01:31:07.611Z,74.53
2022-11-07T01:33:34.567Z,74.05
2022-11-07T01:36:06.102Z,75.31
2022-11-07T01:38:32.952Z,74.62
2022-11-07T01:41:18.245Z,74.18
2022-11-07T01:43:50.915Z,74.08
2022-11-07T01:46:18.775Z,74.50
2022-11-07T01:48:51.865Z,74.57
2022-11-07T01:51:22.676Z,74.84
2022-11-07T01:53:51.102Z,75.29
2022-11-07T01:56:22.292Z,76.03
2022-11-07T01:58:48.960Z,77.04
2022-11-07T02:01:17.193Z,76.71
2022-11-07T02:03:44.387Z,76.67
2022-11-07T02:06:17.990Z,76.51
2022-11-07T02:08:46.482Z,76.35
2022-11-07T02:11:13.907Z,76.23
2022-11-07T02:13:40.552Z,75.96
2022-11-07T02:16:07.373Z,76.28
2022-11-07T02:18:36.953Z,76.35
2022-11-07T02:21:12.451Z,76.24
2022-11-07T02:23:48.517Z,76.62
2022-11-07T02:26:15.660Z,76.73
2022-11-07T02:28:43.375Z,76.84
2022-11-07T02:31:10.060Z,76.96
2022-11-07T02:33:36.696Z,77.66
2022-11-07T02:36:03.543Z,78.53
2022-11-07T02:38:36.637Z,78.30
2022-11-07T02:41:08.204Z,78.46
2022-11-07T02:43:37.912Z,79.41
2022-11-07T02:46:09.834Z,78.81
2022-11-07T02:48:49.655Z,79.37
2022-11-07T02:51:17.028Z,80.41
2022-11-07T02:53:43.799Z,82.09
2022-11-07T02:56:10.945Z,81.83
2022-11-07T02:58:37.801Z,80.29
2022-11-07T03:01:08.424Z,80.09
2022-11-07T03:03:36.843Z,80.27
2022-11-07T03:06:03.516Z,79.16
2022-11-07T03:08:30.112Z,81.54
2022-11-07T03:10:56.903Z,81.18
2022-11-07T03:13:23.705Z,79.75
2022-11-07T03:15:51.532Z,80.00
2022-11-07T03:18:18.684Z,79.55
2022-11-07T03:20:45.711Z,79.23
2022-11-07T03:23:12.695Z,79.28
2022-11-07T03:25:39.552Z,79.20
2022-11-07T03:28:06.079Z,79.34
2022-11-07T03:30:32.722Z,79.77
2022-11-07T03:32:59.848Z,79.93
2022-11-07T03:35:27.820Z,79.50
2022-11-07T03:37:54.765Z,79.18
2022-11-07T03:40:21.311Z,79.63
2022-11-07T03:42:47.926Z,79.13
2022-11-07T03:45:16.102Z,80.67
2022-11-07T03:47:44.080Z,79.77
2022-11-07T03:50:14.489Z,79.72
2022-11-07T03:52:41.043Z,80.49
2022-11-07T03:55:11.459Z,79.28
2022-11-07T03:57:38.750Z,78.89
2022-11-07T04:00:06.360Z,80.95
2022-11-07T04:02:38.724Z,82.44
2022-11-07T04:05:05.886Z,83.47
2022-11-07T04:07:32.456Z,83.60
2022-11-07T04:09:59.104Z,83.58
2022-11-07T04:12:44.189Z,84.96
2022-11-07T04:15:30.167Z,84.89
2022-11-07T04:17:56.786Z,84.20
2022-11-07T04:20:23.405Z,84.17
2022-11-07T04:22:50.076Z,83.36
2022-11-07T04:25:16.640Z,82.46
2022-11-07T04:27:43.227Z,81.83
2022-11-07T04:30:24.386Z,82.06
2022-11-07T04:32:56.066Z,83.29
2022-11-07T04:35:28.387Z,83.47
2022-11-07T04:37:55.355Z,83.46
2022-11-07T04:40:22.342Z,83.57
2022-11-07T04:42:49.696Z,82.74
2022-11-07T04:45:17.220Z,82.71
2022-11-07T04:47:44.108Z,83.60
2022-11-07T04:50:12.727Z,84.65
2022-11-07T04:52:39.603Z,85.89
2022-11-07T04:55:08.405Z,87.45
2022-11-07T04:57:35.042Z,88.08
2022-11-07T05:00:05.254Z,88.13
2022-11-07T05:02:32.041Z,88.98
2022-11-07T05:04:58.821Z,88.91
2022-11-07T05:07:31.323Z,88.96
2022-11-07T05:09:57.855Z,89.48
2022-11-07T05:12:24.445Z,88.77
2022-11-07T05:14:50.988Z,88.09
2022-11-07T05:17:17.663Z,87.08
2022-11-07T05:19:44.444Z,87.81
2022-11-07T05:22:29.967Z,87.58
2022-11-07T05:24:56.589Z,87.35
2022-11-07T05:27:23.809Z,86.68
2022-11-07T05:29:51.038Z,86.13
2022-11-07T05:32:18.173Z,85.86
2022-11-07T05:34:44.728Z,85.48
2022-11-07T05:37:12.801Z,85.11
2022-11-07T05:39:39.745Z,84.76
2022-11-07T05:42:06.588Z,84.59
2022-11-07T05:44:33.560Z,84.09
2022-11-07T05:47:00.866Z,84.11
2022-11-07T05:49:27.379Z,83.83
2022-11-07T05:51:54.035Z,84.18
2022-11-07T05:54:20.870Z,84.50
2022-11-07T05:56:47.438Z,82.37
2022-11-07T05:59:15.050Z,84.37
2022-11-07T06:01:41.972Z,83.99
2022-11-07T06:04:08.832Z,84.65
2022-11-07T06:06:35.482Z,83.97
2022-11-07T06:09:02.060Z,83.34
2022-11-07T06:11:28.751Z,84.54
2022-11-07T06:13:55.333Z,85.32
2022-11-07T06:16:21.889Z,85.59
2022-11-07T06:18:48.686Z,85.64
2022-11-07T06:21:16.804Z,85.02
2022-11-07T06:23:43.625Z,84.75
2022-11-07T06:26:10.755Z,84.35
2022-11-07T06:28:37.723Z,85.16
2022-11-07T06:31:05.003Z,85.00
2022-11-07T06:33:31.847Z,84.19
2022-11-07T06:36:09.753Z,84.01
2022-11-07T06:38:37.565Z,83.68
2022-11-07T06:41:12.775Z,84.12
2022-11-07T06:43:39.762Z,82.88
2022-11-07T06:46:09.452Z,83.14
2022-11-07T06:48:36.353Z,83.42
2022-11-07T06:51:05.577Z,82.46
2022-11-07T06:53:32.878Z,82.08
2022-11-07T06:56:00.456Z,83.47
2022-11-07T06:58:27.129Z,83.04
2022-11-07T07:00:54.133Z,82.95
2022-11-07T07:03:20.736Z,83.33
2022-11-07T07:05:47.305Z,83.37
2022-11-07T07:08:14.885Z,83.42
2022-11-07T07:10:44.385Z,83.47
2022-11-07T07:13:12.884Z,84.03
2022-11-07T07:15:50.393Z,83.94
2022-11-07T07:18:18.964Z,84.08
2022-11-07T07:20:53.978Z,83.56
2022-11-07T07:23:23.832Z,84.00
2022-11-07T07:25:52.728Z,83.86
2022-11-07T07:28:20.769Z,83.56
2022-11-07T07:30:51.539Z,84.45
2022-11-07T07:33:18.998Z,83.88
2022-11-07T07:35:46.011Z,84.15
2022-11-07T07:38:12.704Z,84.43
2022-11-07T07:40:39.415Z,83.88
2022-11-07T07:43:09.021Z,84.64
2022-11-07T07:45:35.631Z,84.02
2022-11-07T07:48:02.535Z,84.51
2022-11-07T07:50:29.343Z,84.92
2022-11-07T07:52:57.904Z,84.91
2022-11-07T07:55:24.673Z,85.39
2022-11-07T07:57:51.441Z,85.14
2022-11-07T08:00:18.253Z,85.21
2022-11-07T08:02:44.918Z,85.55
2022-11-07T08:05:13.428Z,84.73
2022-11-07T08:07:50.837Z,86.42
2022-11-07T08:13:05.665Z,85.89
2022-11-07T08:15:32.359Z,86.17
2022-11-07T08:18:02.103Z,86.79
2022-11-07T08:20:28.722Z,85.47
2022-11-07T08:23:03.774Z,84.62
2022-11-07T08:25:30.894Z,85.13
2022-11-07T08:27:57.767Z,85.12
2022-11-07T08:30:24.623Z,86.81
2022-11-07T08:32:51.315Z,87.21
2022-11-07T08:35:17.915Z,85.71
2022-11-07T08:37:47.381Z,84.54
2022-11-07T08:40:19.146Z,84.63
2022-11-07T08:42:45.892Z,83.57
2022-11-07T08:45:12.462Z,85.67
2022-11-07T08:47:39.093Z,84.91
2022-11-07T08:50:08.107Z,84.22
2022-11-07T08:52:36.159Z,85.26
2022-11-07T08:55:04.265Z,83.51
2022-11-07T08:57:30.863Z,82.89
2022-11-07T08:59:57.710Z,82.37
2022-11-07T09:05:11.304Z,82.54
2022-11-07T09:07:39.706Z,82.23
2022-11-07T09:10:06.926Z,81.88
2022-11-07T09:12:36.093Z,82.31
2022-11-07T09:15:03.719Z,81.43
2022-11-07T09:17:33.363Z,82.49
2022-11-07T09:20:02.631Z,83.27
2022-11-07T09:22:29.272Z,81.99
2022-11-07T09:24:56.034Z,83.20
2022-11-07T09:27:25.557Z,82.77
2022-11-07T09:29:52.743Z,83.13
2022-11-07T09:32:43.164Z,81.45
2022-11-07T09:35:06.831Z,81.56
2022-11-07T09:37:33.419Z,81.98
2022-11-07T09:40:00.165Z,81.73
2022-11-07T09:42:44.998Z,82.27
2022-11-07T09:45:13.350Z,81.48
2022-11-07T09:47:39.941Z,81.03
2022-11-07T09:50:18.147Z,82.08
2022-11-07T09:53:07.824Z,81.52
2022-11-07T09:55:38.376Z,81.35
2022-11-07T09:58:25.149Z,81.23
2022-11-07T10:00:53.963Z,80.23
2022-11-07T10:03:20.572Z,79.77
2022-11-07T10:06:02.746Z,80.38
2022-11-07T10:08:38.573Z,79.69
2022-11-07T10:11:28.206Z,79.63
2022-11-07T10:14:02.797Z,79.59
2022-11-07T10:16:38.111Z,79.57
2022-11-07T10:19:29.771Z,79.13
2022-11-07T10:22:05.930Z,79.87
2022-11-07T10:25:19.305Z,80.78
2022-11-07T10:27:54.037Z,82.65
2022-11-07T10:30:25.528Z,84.73
2022-11-07T10:33:17.205Z,86.55
2022-11-07T10:35:49.046Z,87.19
2022-11-07T10:38:28.248Z,87.75
2022-11-07T10:40:55.496Z,86.96
2022-11-07T10:43:38.789Z,86.53
2022-11-07T10:46:18.909Z,85.61
2022-11-07T10:49:17.729Z,85.02
2022-11-07T10:51:48.912Z,84.52
2022-11-07T10:54:22.048Z,85.17
2022-11-07T10:56:56.393Z,83.90
2022-11-07T10:59:35.662Z,83.60
2022-11-07T11:02:43.918Z,81.53
2022-11-07T11:05:50.219Z,81.53
2022-11-07T11:08:20.296Z,81.77
2022-11-07T11:10:48.699Z,81.58
2022-11-07T11:13:34.219Z,80.81
2022-11-07T11:16:37.574Z,81.05
2022-11-07T11:19:05.648Z,80.87
2022-11-07T11:21:44.290Z,81.14
2022-11-07T11:24:23.251Z,80.05
2022-11-07T11:26:52.442Z,80.24
2022-11-07T11:29:39.166Z,81.60
2022-11-07T11:32:46.514Z,80.94
2022-11-07T11:35:31.934Z,81.42
2022-11-07T11:38:21.642Z,80.44
2022-11-07T11:41:21.366Z,79.57
2022-11-07T11:43:57.408Z,79.10
2022-11-07T11:46:33.538Z,79.35
2022-11-07T11:49:15.284Z,78.28
2022-11-07T11:51:55.060Z,78.48
2022-11-07T11:54:22.125Z,78.57
2022-11-07T11:56:55.836Z,79.43
2022-11-07T11:59:37.284Z,77.67
2022-11-07T12:02:13.037Z,78.15
2022-11-07T12:04:58.023Z,79.79
2022-11-07T12:08:14.418Z,78.54
2022-11-07T12:10:55.561Z,78.66
2022-11-07T12:13:47.621Z,78.92
2022-11-07T12:16:30.515Z,79.58
2022-11-07T12:19:32.746Z,78.43
2022-11-07T12:22:14.771Z,78.46
2022-11-07T12:24:52.788Z,78.62
2022-11-07T12:27:28.478Z,78.64
2022-11-07T12:30:18.612Z,79.52
2022-11-07T12:33:02.609Z,79.61
2022-11-07T12:35:47.422Z,79.09
2022-11-07T12:38:14.498Z,80.32
2022-11-07T12:41:06.605Z,81.44
2022-11-07T12:43:42.140Z,80.98
2022-11-07T12:46:43.834Z,81.02
2022-11-07T12:49:31.384Z,80.54
2022-11-07T12:52:17.619Z,79.78
2022-11-07T12:54:51.572Z,79.25
2022-11-07T12:57:25.253Z,79.37
2022-11-07T13:00:06.841Z,78.81
2022-11-07T13:03:12.420Z,79.50
2022-11-07T13:06:18.486Z,78.74
2022-11-07T13:08:57.437Z,78.61
2022-11-07T13:11:55.404Z,76.10
2022-11-07T13:14:37.164Z,75.54
2022-11-07T13:17:30.969Z,77.51
2022-11-07T13:19:59.294Z,77.56
2022-11-07T13:22:32.271Z,77.75
2022-11-07T13:25:06.138Z,76.94
2022-11-07T13:27:40.043Z,76.69
2022-11-07T13:30:15.563Z,77.41
2022-11-07T13:32:48.245Z,77.62
2022-11-07T13:35:35.321Z,78.20
2022-11-07T13:38:24.317Z,78.76
2022-11-07T13:40:52.685Z,78.15
2022-11-07T13:43:46.145Z,77.75
2022-11-07T13:46:29.751Z,80.61
2022-11-07T13:49:01.784Z,80.42
2022-11-07T13:51:37.366Z,80.46
2022-11-07T13:54:31.504Z,80.08
2022-11-07T13:57:23.368Z,80.31
2022-11-07T13:59:58.939Z,80.81
2022-11-07T14:02:28.376Z,80.05
2022-11-07T14:05:16.911Z,80.03
2022-11-07T14:07:49.394Z,81.05
2022-11-07T14:10:21.502Z,81.60
2022-11-07T14:12:48.831Z,81.12
2022-11-07T14:15:17.349Z,81.21
2022-11-07T14:17:46.207Z,81.61
2022-11-07T14:20:15.518Z,83.05
2022-11-07T14:22:52.918Z,82.12
2022-11-07T14:25:24.718Z,81.93
2022-11-07T14:27:51.505Z,81.93
2022-11-07T14:30:20.601Z,82.51
2022-11-07T14:32:52.922Z,81.55
2022-11-07T14:35:28.745Z,82.06
2022-11-07T14:37:57.396Z,82.10
2022-11-07T14:40:25.590Z,81.72
2022-11-07T14:42:54.582Z,81.20
2022-11-07T14:45:56.558Z,81.83
2022-11-07T14:48:13.016Z,82.91
2022-11-07T14:50:44.537Z,82.21
2022-11-07T14:53:17.029Z,81.24
2022-11-07T14:55:49.598Z,82.61
2022-11-07T14:58:19.583Z,81.87
2022-11-07T15:00:58.486Z,83.04
2022-11-07T15:03:34.196Z,82.60
2022-11-07T15:06:01.154Z,82.54
2022-11-07T15:08:34.549Z,82.96
2022-11-07T15:11:01.126Z,82.19
2022-11-07T15:13:32.964Z,82.21
2022-11-07T15:16:07.884Z,81.72
2022-11-07T15:18:39.737Z,82.26
2022-11-07T15:21:06.984Z,81.14
2022-11-07T15:23:35.388Z,81.97
2022-11-07T15:26:07.979Z,81.06
2022-11-07T15:28:49.399Z,83.08
2022-11-07T15:31:26.176Z,82.91
2022-11-07T15:33:53.894Z,81.95
2022-11-07T15:36:21.606Z,83.44
2022-11-07T15:38:49.724Z,81.59
2022-11-07T15:41:16.686Z,82.68
2022-11-07T15:43:43.745Z,82.27
2022-11-07T15:46:39.211Z,83.38
2022-11-07T15:49:09.659Z,84.42
2022-11-07T15:51:36.328Z,85.89
2022-11-07T15:54:10.456Z,86.91
2022-11-07T15:56:37.340Z,87.63
2022-11-07T15:59:05.540Z,89.22
2022-11-07T16:01:32.302Z,88.78
2022-11-07T16:03:59.105Z,88.82
2022-11-07T16:06:31.289Z,88.48
2022-11-07T16:08:58.216Z,87.59
2022-11-07T16:11:24.921Z,88.66
2022-11-07T16:13:59.290Z,89.47
2022-11-07T16:16:36.813Z,94.86
2022-11-07T16:19:03.781Z,95.55
2022-11-07T16:21:30.777Z,96.06
2022-11-07T16:23:57.933Z,96.63
2022-11-07T16:26:28.886Z,95.96
2022-11-07T16:28:56.245Z,96.15
2022-11-07T16:31:22.940Z,95.81
2022-11-07T16:33:49.644Z,95.68
2022-11-07T16:36:30.245Z,94.38
2022-11-07T16:38:57.001Z,94.56
2022-11-07T16:41:23.599Z,93.55
2022-11-07T16:43:50.279Z,92.79
2022-11-07T16:46:20.138Z,91.47
2022-11-07T16:48:51.349Z,91.27
2022-11-07T16:51:20.289Z,91.49
2022-11-07T16:53:49.364Z,91.56
2022-11-07T16:56:29.285Z,92.05
2022-11-07T16:58:56.756Z,90.70
2022-11-07T17:01:24.893Z,91.02
2022-11-07T17:03:52.313Z,89.31
2022-11-07T17:06:33.512Z,89.63
2022-11-07T17:09:10.311Z,90.86
2022-11-07T17:11:39.893Z,91.25
2022-11-07T17:14:06.500Z,89.84
2022-11-07T17:16:36.576Z,89.58
2022-11-07T17:19:06.524Z,90.03
2022-11-07T17:21:37.847Z,90.48
2022-11-07T17:24:04.762Z,89.96
2022-11-07T17:26:35.164Z,90.06
2022-11-07T17:29:02.679Z,89.92
2022-11-07T17:31:29.240Z,89.73
2022-11-07T17:33:56.028Z,89.79
2022-11-07T17:36:36.374Z,90.36
2022-11-07T17:39:11.743Z,89.75
2022-11-07T17:41:40.538Z,89.35
2022-11-07T17:44:07.605Z,89.41
2022-11-07T17:46:36.183Z,88.87
2022-11-07T17:49:06.998Z,87.98
2022-11-07T17:51:36.000Z,88.87
2022-11-07T17:54:03.147Z,88.38
2022-11-07T17:56:31.360Z,89.42
2022-11-07T17:59:00.302Z,88.26
2022-11-07T18:01:30.461Z,88.97
2022-11-07T18:03:57.977Z,88.52
2022-11-07T18:06:25.841Z,88.27
2022-11-07T18:08:54.819Z,87.81
2022-11-07T18:11:27.767Z,87.57
2022-11-07T18:13:55.756Z,88.37
2022-11-07T18:16:33.956Z,89.29
2022-11-07T18:19:01.952Z,88.86
2022-11-07T18:21:28.982Z,87.78
2022-11-07T18:23:57.280Z,87.55
2022-11-07T18:26:30.493Z,88.55
2022-11-07T18:29:04.958Z,88.75
2022-11-07T18:31:35.896Z,88.76
2022-11-07T18:34:07.800Z,89.33
2022-11-07T18:36:39.965Z,88.19
2022-11-07T18:39:22.581Z,87.63
2022-11-07T18:41:50.691Z,87.38
2022-11-07T18:44:17.458Z,88.79
2022-11-07T18:46:44.601Z,89.28
2022-11-07T18:49:14.191Z,90.62
2022-11-07T18:51:42.902Z,88.41
2022-11-07T18:54:10.655Z,90.04
2022-11-07T18:56:39.795Z,89.64
2022-11-07T18:59:06.577Z,88.24
2022-11-07T19:01:37.181Z,88.22
2022-11-07T19:04:08.299Z,88.95
2022-11-07T19:06:35.383Z,90.11
2022-11-07T19:09:02.918Z,88.88
2022-11-07T19:11:31.922Z,89.23
2022-11-07T19:14:02.942Z,88.16
2022-11-07T19:16:30.065Z,88.07
2022-11-07T19:18:58.985Z,89.69
2022-11-07T19:21:25.846Z,89.23
2022-11-07T19:23:52.450Z,89.24
2022-11-07T19:26:19.345Z,90.48
2022-11-07T19:28:46.273Z,90.96
2022-11-07T19:31:13.748Z,90.25
2022-11-07T19:33:43.898Z,90.05
2022-11-07T19:36:20.154Z,90.46
2022-11-07T19:38:48.026Z,89.15
2022-11-07T19:41:16.152Z,89.28
2022-11-07T19:43:44.693Z,90.50
2022-11-07T19:46:15.291Z,90.50
2022-11-07T19:48:44.529Z,90.67
2022-11-07T19:51:21.252Z,88.99
2022-11-07T19:53:59.968Z,88.71
2022-11-07T19:56:29.884Z,88.74
2022-11-07T19:58:56.940Z,90.20
2022-11-07T20:01:27.964Z,90.94
2022-11-07T20:03:58.334Z,91.15
2022-11-07T20:06:30.309Z,91.25
2022-11-07T20:08:57.421Z,91.08
2022-11-07T20:11:26.073Z,91.48
2022-11-07T20:14:02.766Z,91.28
2022-11-07T20:16:34.298Z,89.98
2022-11-07T20:19:01.461Z,91.96
2022-11-07T20:21:29.328Z,91.84
2022-11-07T20:24:00.615Z,92.36
2022-11-07T20:26:32.328Z,91.78
2022-11-07T20:29:01.923Z,91.97
2022-11-07T20:31:32.710Z,92.65
2022-11-07T20:34:01.600Z,91.42
2022-11-07T20:36:31.602Z,91.99
2022-11-07T20:39:00.877Z,91.77
2022-11-07T20:41:28.439Z,92.28
2022-11-07T20:44:15.375Z,90.63
2022-11-07T20:46:44.907Z,91.37
2022-11-07T20:49:15.949Z,91.50
2022-11-07T20:51:43.823Z,90.29
2022-11-07T20:54:15.271Z,90.67
2022-11-07T20:56:43.586Z,91.14
2022-11-07T20:59:10.712Z,91.14
2022-11-07T21:01:37.760Z,91.57
2022-11-07T21:04:06.460Z,91.52
2022-11-07T21:06:34.402Z,91.63
2022-11-07T21:09:01.065Z,90.33
2022-11-07T21:11:29.406Z,90.13
2022-11-07T21:13:56.695Z,89.88
2022-11-07T21:16:24.113Z,90.45
2022-11-07T21:18:51.877Z,90.92
2022-11-07T21:21:23.987Z,89.74
2022-11-07T21:23:51.606Z,91.18
2022-11-07T21:26:23.863Z,93.14
2022-11-07T21:28:50.647Z,93.77
2022-11-07T21:31:23.547Z,92.77
2022-11-07T21:33:51.494Z,93.63
2022-11-07T21:36:21.155Z,93.87
2022-11-07T21:38:47.918Z,94.15
2022-11-07T21:41:15.511Z,94.27
2022-11-07T21:43:42.518Z,94.20
2022-11-07T21:46:13.535Z,96.87
2022-11-07T21:48:41.139Z,96.83
2022-11-07T21:51:14.939Z,95.76
2022-11-07T21:53:41.818Z,94.82
2022-11-07T21:56:12.576Z,95.60
2022-11-07T21:58:42.697Z,96.24
2022-11-07T22:01:09.560Z,97.98
2022-11-07T22:04:06.352Z,98.24
2022-11-07T22:06:22.985Z,97.89
2022-11-07T22:08:51.596Z,97.96
2022-11-07T22:11:18.541Z,96.57
2022-11-07T22:13:45.232Z,97.04
2022-11-07T22:16:17.738Z,97.97
2022-11-07T22:18:44.651Z,97.27
2022-11-07T22:21:17.273Z,95.70
2022-11-07T22:23:44.270Z,94.81
2022-11-07T22:26:13.473Z,94.82
2022-11-07T22:28:45.558Z,94.98
2022-11-07T22:31:20.544Z,94.40
2022-11-07T22:33:47.740Z,95.22
2022-11-07T22:36:14.882Z,93.95
2022-11-07T22:38:42.117Z,93.85
2022-11-07T22:41:13.954Z,94.64
2022-11-07T22:43:40.813Z,95.26
2022-11-07T22:46:10.508Z,93.83
2022-11-07T22:48:38.558Z,95.56
2022-11-07T22:51:06.841Z,95.57
2022-11-07T22:53:34.398Z,94.67
2022-11-07T22:56:13.019Z,94.86
2022-11-07T22:58:40.530Z,94.36
2022-11-07T23:01:22.378Z,95.76
2022-11-07T23:03:49.417Z,94.74
2022-11-07T23:06:16.995Z,94.25
2022-11-07T23:08:44.163Z,93.31
2022-11-07T23:11:45.382Z,93.92
2022-11-07T23:14:09.993Z,93.18
2022-11-07T23:16:44.224Z,93.74
2022-11-07T23:19:20.107Z,91.78
2022-11-07T23:21:47.010Z,92.65
2022-11-07T23:24:14.157Z,91.70
2022-11-07T23:26:41.062Z,92.13
2022-11-07T23:29:17.951Z,92.49
2022-11-07T23:31:50.313Z,90.88
2022-11-07T23:34:18.086Z,89.90
2022-11-07T23:36:48.352Z,90.32
2022-11-07T23:39:20.669Z,90.31
2022-11-07T23:41:50.413Z,90.51
2022-11-07T23:44:20.814Z,90.71
2022-11-07T23:47:11.214Z,91.72
2022-11-07T23:49:59.080Z,91.40
2022-11-07T23:52:25.813Z,90.54
2022-11-07T23:55:13.120Z,90.45
2022-11-07T23:57:58.272Z,90.97
